sensor_id;sensor_type;location;lat;lon;timestamp;temperature;humidity
296;DHT22;132;48.770;9.200;2023-04-03T00:00:10;4.60;1.00
296;DHT22;132;48.770;9.200;2023-04-03T00:02:36;4.60;1.00
296;DHT22;132;48.770;9.200;2023-04-03T00:05:03;4.60;1.00
296;DHT22;132;48.770;9.200;2023-04-03T00:07:30;4.60;1.00
296;DHT22;132;48.770;9.200;2023-04-03T00:09:57;4.70;1.00
296;DHT22;132;48.770;9.200;2023-04-03T00:12:23;4.60;1.00
296;DHT22;132;48.770;9.200;2023-04-03T00:14:49;4.60;1.00
296;DHT22;132;48.770;9.200;2023-04-03T00:17:16;4.60;1.00
296;DHT22;132;48.770;9.200;2023-04-03T00:19:42;4.60;1.00
296;DHT22;132;48.770;9.200;2023-04-03T00:22:08;4.60;1.00
296;DHT22;132;48.770;9.200;2023-04-03T00:24:34;4.50;1.00
296;DHT22;132;48.770;9.200;2023-04-03T00:27:01;4.60;1.00
296;DHT22;132;48.770;9.200;2023-04-03T00:29:27;4.60;1.00
296;DHT22;132;48.770;9.200;2023-04-03T00:31:53;4.60;1.00
296;DHT22;132;48.770;9.200;2023-04-03T00:34:20;4.60;1.00
296;DHT22;132;48.770;9.200;2023-04-03T00:36:46;4.60;1.00
296;DHT22;132;48.770;9.200;2023-04-03T00:39:12;4.60;1.00
296;DHT22;132;48.770;9.200;2023-04-03T00:41:39;4.60;1.00
296;DHT22;132;48.770;9.200;2023-04-03T00:44:20;4.60;1.00
296;DHT22;132;48.770;9.200;2023-04-03T00:46:48;4.60;1.00
296;DHT22;132;48.770;9.200;2023-04-03T00:49:15;4.60;1.00
296;DHT22;132;48.770;9.200;2023-04-03T00:51:41;4.60;1.00
296;DHT22;132;48.770;9.200;2023-04-03T00:54:08;4.60;1.00
296;DHT22;132;48.770;9.200;2023-04-03T00:56:36;4.60;1.00
296;DHT22;132;48.770;9.200;2023-04-03T00:59:10;4.60;1.00
296;DHT22;132;48.770;9.200;2023-04-03T01:01:38;4.60;1.00
296;DHT22;132;48.770;9.200;2023-04-03T01:04:05;4.60;1.00
296;DHT22;132;48.770;9.200;2023-04-03T01:06:36;4.60;1.00
296;DHT22;132;48.770;9.200;2023-04-03T01:09:08;4.80;1.00
296;DHT22;132;48.770;9.200;2023-04-03T01:11:35;4.60;1.00
296;DHT22;132;48.770;9.200;2023-04-03T01:14:02;4.60;1.00
296;DHT22;132;48.770;9.200;2023-04-03T01:16:29;4.60;1.00
296;DHT22;132;48.770;9.200;2023-04-03T01:18:59;4.60;1.00
296;DHT22;132;48.770;9.200;2023-04-03T01:24:14;4.70;1.00
296;DHT22;132;48.770;9.200;2023-04-03T01:26:44;4.60;1.00
296;DHT22;132;48.770;9.200;2023-04-03T01:29:11;4.60;1.00
296;DHT22;132;48.770;9.200;2023-04-03T01:31:45;4.50;1.00
296;DHT22;132;48.770;9.200;2023-04-03T01:34:12;4.50;1.00
296;DHT22;132;48.770;9.200;2023-04-03T01:36:38;4.50;1.00
296;DHT22;132;48.770;9.200;2023-04-03T01:39:04;4.50;1.00
296;DHT22;132;48.770;9.200;2023-04-03T01:41:31;4.50;1.00
296;DHT22;132;48.770;9.200;2023-04-03T01:44:10;4.50;1.00
296;DHT22;132;48.770;9.200;2023-04-03T01:46:36;4.40;1.00
296;DHT22;132;48.770;9.200;2023-04-03T01:49:04;4.40;1.00
296;DHT22;132;48.770;9.200;2023-04-03T01:51:31;4.40;1.00
296;DHT22;132;48.770;9.200;2023-04-03T01:53:57;4.40;1.00
296;DHT22;132;48.770;9.200;2023-04-03T01:56:23;4.50;1.00
296;DHT22;132;48.770;9.200;2023-04-03T01:58:51;4.50;1.00
296;DHT22;132;48.770;9.200;2023-04-03T02:01:17;4.40;1.00
296;DHT22;132;48.770;9.200;2023-04-03T02:03:44;4.40;1.00
296;DHT22;132;48.770;9.200;2023-04-03T02:06:10;4.40;1.00
296;DHT22;132;48.770;9.200;2023-04-03T02:08:37;4.40;1.00
296;DHT22;132;48.770;9.200;2023-04-03T02:11:03;4.40;1.00
296;DHT22;132;48.770;9.200;2023-04-03T02:13:29;4.40;1.00
296;DHT22;132;48.770;9.200;2023-04-03T02:15:56;4.40;1.00
296;DHT22;132;48.770;9.200;2023-04-03T02:18:22;4.40;1.00
296;DHT22;132;48.770;9.200;2023-04-03T02:20:48;4.40;1.00
296;DHT22;132;48.770;9.200;2023-04-03T02:23:15;4.40;1.00
296;DHT22;132;48.770;9.200;2023-04-03T02:25:41;4.40;1.00
296;DHT22;132;48.770;9.200;2023-04-03T02:28:07;4.40;1.00
296;DHT22;132;48.770;9.200;2023-04-03T02:30:34;4.40;1.00
296;DHT22;132;48.770;9.200;2023-04-03T02:33:00;4.40;1.00
296;DHT22;132;48.770;9.200;2023-04-03T02:35:27;4.40;1.00
296;DHT22;132;48.770;9.200;2023-04-03T02:37:55;4.40;1.00
296;DHT22;132;48.770;9.200;2023-04-03T02:40:22;4.50;1.00
296;DHT22;132;48.770;9.200;2023-04-03T02:42:50;4.50;1.00
296;DHT22;132;48.770;9.200;2023-04-03T02:45:17;4.50;1.00
296;DHT22;132;48.770;9.200;2023-04-03T02:47:44;4.50;1.00
296;DHT22;132;48.770;9.200;2023-04-03T02:50:10;4.50;1.00
296;DHT22;132;48.770;9.200;2023-04-03T02:52:37;4.50;1.00
296;DHT22;132;48.770;9.200;2023-04-03T02:55:04;4.50;1.00
296;DHT22;132;48.770;9.200;2023-04-03T02:57:31;4.40;1.00
296;DHT22;132;48.770;9.200;2023-04-03T02:59:57;4.40;1.00
296;DHT22;132;48.770;9.200;2023-04-03T03:02:24;4.50;1.00
296;DHT22;132;48.770;9.200;2023-04-03T03:04:50;4.50;1.00
296;DHT22;132;48.770;9.200;2023-04-03T03:07:17;4.50;1.00
296;DHT22;132;48.770;9.200;2023-04-03T03:09:44;4.50;1.00
296;DHT22;132;48.770;9.200;2023-04-03T03:12:10;4.40;1.00
296;DHT22;132;48.770;9.200;2023-04-03T03:14:36;4.40;1.00
296;DHT22;132;48.770;9.200;2023-04-03T03:17:03;4.40;1.00
296;DHT22;132;48.770;9.200;2023-04-03T03:19:29;4.40;1.00
296;DHT22;132;48.770;9.200;2023-04-03T03:21:56;4.40;1.00
296;DHT22;132;48.770;9.200;2023-04-03T03:24:23;4.50;1.00
296;DHT22;132;48.770;9.200;2023-04-03T03:26:49;4.50;1.00
296;DHT22;132;48.770;9.200;2023-04-03T03:29:16;4.40;1.00
296;DHT22;132;48.770;9.200;2023-04-03T03:31:43;4.40;1.00
296;DHT22;132;48.770;9.200;2023-04-03T03:34:11;4.40;1.00
296;DHT22;132;48.770;9.200;2023-04-03T03:36:38;4.40;1.00
296;DHT22;132;48.770;9.200;2023-04-03T03:39:05;4.40;1.00
296;DHT22;132;48.770;9.200;2023-04-03T03:41:31;4.40;1.00
296;DHT22;132;48.770;9.200;2023-04-03T03:43:58;4.60;1.00
296;DHT22;132;48.770;9.200;2023-04-03T03:46:26;4.40;1.00
296;DHT22;132;48.770;9.200;2023-04-03T03:48:53;4.40;1.00
296;DHT22;132;48.770;9.200;2023-04-03T03:51:19;4.50;1.00
296;DHT22;132;48.770;9.200;2023-04-03T03:53:46;4.50;1.00
296;DHT22;132;48.770;9.200;2023-04-03T03:56:15;4.50;1.00
296;DHT22;132;48.770;9.200;2023-04-03T03:58:42;4.50;1.00
296;DHT22;132;48.770;9.200;2023-04-03T04:01:09;4.30;1.00
296;DHT22;132;48.770;9.200;2023-04-03T04:03:41;4.30;1.00
296;DHT22;132;48.770;9.200;2023-04-03T04:06:11;4.30;1.00
296;DHT22;132;48.770;9.200;2023-04-03T04:08:37;4.30;1.00
296;DHT22;132;48.770;9.200;2023-04-03T04:11:06;4.30;1.00
296;DHT22;132;48.770;9.200;2023-04-03T04:13:34;4.30;1.00
296;DHT22;132;48.770;9.200;2023-04-03T04:16:01;4.30;1.00
296;DHT22;132;48.770;9.200;2023-04-03T04:18:28;4.60;1.00
296;DHT22;132;48.770;9.200;2023-04-03T04:20:54;4.40;1.00
296;DHT22;132;48.770;9.200;2023-04-03T04:23:22;4.40;1.00
296;DHT22;132;48.770;9.200;2023-04-03T04:25:50;4.40;1.00
296;DHT22;132;48.770;9.200;2023-04-03T04:28:17;4.40;1.00
296;DHT22;132;48.770;9.200;2023-04-03T04:30:44;4.40;1.00
296;DHT22;132;48.770;9.200;2023-04-03T04:33:12;4.50;1.00
296;DHT22;132;48.770;9.200;2023-04-03T04:35:42;4.40;1.00
296;DHT22;132;48.770;9.200;2023-04-03T04:38:09;4.40;1.00
296;DHT22;132;48.770;9.200;2023-04-03T04:40:37;4.70;1.00
296;DHT22;132;48.770;9.200;2023-04-03T04:43:04;4.40;1.00
296;DHT22;132;48.770;9.200;2023-04-03T04:45:31;4.40;1.00
296;DHT22;132;48.770;9.200;2023-04-03T04:47:57;4.30;1.00
296;DHT22;132;48.770;9.200;2023-04-03T04:50:25;4.30;1.00
296;DHT22;132;48.770;9.200;2023-04-03T04:52:51;4.40;1.00
296;DHT22;132;48.770;9.200;2023-04-03T04:55:18;4.40;1.00
296;DHT22;132;48.770;9.200;2023-04-03T04:57:45;4.40;1.00
296;DHT22;132;48.770;9.200;2023-04-03T05:00:12;4.50;1.00
296;DHT22;132;48.770;9.200;2023-04-03T05:02:39;4.40;1.00
296;DHT22;132;48.770;9.200;2023-04-03T05:05:06;4.40;1.00
296;DHT22;132;48.770;9.200;2023-04-03T05:07:34;4.40;1.00
296;DHT22;132;48.770;9.200;2023-04-03T05:10:03;4.50;1.00
296;DHT22;132;48.770;9.200;2023-04-03T05:12:30;4.50;1.00
296;DHT22;132;48.770;9.200;2023-04-03T05:15:00;4.50;1.00
296;DHT22;132;48.770;9.200;2023-04-03T05:17:29;4.50;1.00
296;DHT22;132;48.770;9.200;2023-04-03T05:19:57;4.50;1.00
296;DHT22;132;48.770;9.200;2023-04-03T05:22:24;4.50;1.00
296;DHT22;132;48.770;9.200;2023-04-03T05:24:55;4.50;1.00
296;DHT22;132;48.770;9.200;2023-04-03T05:27:23;4.50;1.00
296;DHT22;132;48.770;9.200;2023-04-03T05:29:53;4.50;1.00
296;DHT22;132;48.770;9.200;2023-04-03T05:32:23;4.50;1.00
296;DHT22;132;48.770;9.200;2023-04-03T05:34:58;4.40;1.00
296;DHT22;132;48.770;9.200;2023-04-03T05:37:25;4.40;1.00
296;DHT22;132;48.770;9.200;2023-04-03T05:39:53;4.40;1.00
296;DHT22;132;48.770;9.200;2023-04-03T05:42:19;4.30;1.00
296;DHT22;132;48.770;9.200;2023-04-03T05:44:46;4.40;1.00
296;DHT22;132;48.770;9.200;2023-04-03T05:47:13;4.40;1.00
296;DHT22;132;48.770;9.200;2023-04-03T05:49:40;4.40;1.00
296;DHT22;132;48.770;9.200;2023-04-03T05:52:21;4.30;1.00
296;DHT22;132;48.770;9.200;2023-04-03T05:54:49;4.30;1.00
296;DHT22;132;48.770;9.200;2023-04-03T05:57:20;4.30;1.00
296;DHT22;132;48.770;9.200;2023-04-03T05:59:47;4.30;1.00
296;DHT22;132;48.770;9.200;2023-04-03T06:02:17;4.30;1.00
296;DHT22;132;48.770;9.200;2023-04-03T06:04:45;4.30;1.00
296;DHT22;132;48.770;9.200;2023-04-03T06:07:15;4.30;1.00
296;DHT22;132;48.770;9.200;2023-04-03T06:09:42;4.30;1.00
296;DHT22;132;48.770;9.200;2023-04-03T06:12:09;4.20;1.00
296;DHT22;132;48.770;9.200;2023-04-03T06:14:36;4.30;1.00
296;DHT22;132;48.770;9.200;2023-04-03T06:17:02;4.20;1.00
296;DHT22;132;48.770;9.200;2023-04-03T06:19:29;4.30;1.00
296;DHT22;132;48.770;9.200;2023-04-03T06:21:57;4.30;1.00
296;DHT22;132;48.770;9.200;2023-04-03T06:24:24;4.40;1.00
296;DHT22;132;48.770;9.200;2023-04-03T06:26:51;4.40;1.00
296;DHT22;132;48.770;9.200;2023-04-03T06:29:21;4.50;1.00
296;DHT22;132;48.770;9.200;2023-04-03T06:31:48;4.50;1.00
296;DHT22;132;48.770;9.200;2023-04-03T06:34:15;4.50;1.00
296;DHT22;132;48.770;9.200;2023-04-03T06:36:43;4.60;1.00
296;DHT22;132;48.770;9.200;2023-04-03T06:39:14;4.70;1.00
296;DHT22;132;48.770;9.200;2023-04-03T06:41:41;4.60;1.00
296;DHT22;132;48.770;9.200;2023-04-03T06:44:08;4.70;1.00
296;DHT22;132;48.770;9.200;2023-04-03T06:46:37;4.70;1.00
296;DHT22;132;48.770;9.200;2023-04-03T06:49:05;4.80;1.00
296;DHT22;132;48.770;9.200;2023-04-03T06:51:34;4.80;1.00
296;DHT22;132;48.770;9.200;2023-04-03T06:54:02;4.80;1.00
296;DHT22;132;48.770;9.200;2023-04-03T06:56:29;4.80;1.00
296;DHT22;132;48.770;9.200;2023-04-03T06:58:56;4.80;1.00
296;DHT22;132;48.770;9.200;2023-04-03T07:01:25;4.80;1.00
296;DHT22;132;48.770;9.200;2023-04-03T07:03:54;4.80;1.00
296;DHT22;132;48.770;9.200;2023-04-03T07:06:21;4.90;1.00
296;DHT22;132;48.770;9.200;2023-04-03T07:08:48;5.00;1.00
296;DHT22;132;48.770;9.200;2023-04-03T07:11:15;5.10;1.00
296;DHT22;132;48.770;9.200;2023-04-03T07:13:42;5.10;1.00
296;DHT22;132;48.770;9.200;2023-04-03T07:16:09;5.20;1.00
296;DHT22;132;48.770;9.200;2023-04-03T07:18:35;5.20;1.00
296;DHT22;132;48.770;9.200;2023-04-03T07:21:02;5.20;1.00
296;DHT22;132;48.770;9.200;2023-04-03T07:23:29;5.20;1.00
296;DHT22;132;48.770;9.200;2023-04-03T07:25:55;5.30;1.00
296;DHT22;132;48.770;9.200;2023-04-03T07:28:22;5.50;1.00
296;DHT22;132;48.770;9.200;2023-04-03T07:30:53;5.30;1.00
296;DHT22;132;48.770;9.200;2023-04-03T07:33:22;5.50;1.00
296;DHT22;132;48.770;9.200;2023-04-03T07:35:49;5.50;1.00
296;DHT22;132;48.770;9.200;2023-04-03T07:38:15;5.60;1.00
296;DHT22;132;48.770;9.200;2023-04-03T07:40:49;6.00;1.00
296;DHT22;132;48.770;9.200;2023-04-03T07:43:17;5.60;1.00
296;DHT22;132;48.770;9.200;2023-04-03T07:45:44;5.70;1.00
296;DHT22;132;48.770;9.200;2023-04-03T07:48:11;5.70;1.00
296;DHT22;132;48.770;9.200;2023-04-03T07:50:40;5.70;1.00
296;DHT22;132;48.770;9.200;2023-04-03T07:53:07;5.80;1.00
296;DHT22;132;48.770;9.200;2023-04-03T07:55:34;5.90;1.00
296;DHT22;132;48.770;9.200;2023-04-03T07:58:06;5.90;1.00
296;DHT22;132;48.770;9.200;2023-04-03T08:00:33;5.80;1.00
296;DHT22;132;48.770;9.200;2023-04-03T08:03:00;5.70;1.00
296;DHT22;132;48.770;9.200;2023-04-03T08:05:26;5.80;1.00
296;DHT22;132;48.770;9.200;2023-04-03T08:07:53;5.80;1.00
296;DHT22;132;48.770;9.200;2023-04-03T08:10:19;5.70;1.00
296;DHT22;132;48.770;9.200;2023-04-03T08:12:46;5.90;1.00
296;DHT22;132;48.770;9.200;2023-04-03T08:15:13;6.00;1.00
296;DHT22;132;48.770;9.200;2023-04-03T08:17:40;6.00;1.00
296;DHT22;132;48.770;9.200;2023-04-03T08:20:07;6.10;1.00
296;DHT22;132;48.770;9.200;2023-04-03T08:22:34;6.00;1.00
296;DHT22;132;48.770;9.200;2023-04-03T08:25:01;6.00;1.00
296;DHT22;132;48.770;9.200;2023-04-03T08:27:28;6.10;1.00
296;DHT22;132;48.770;9.200;2023-04-03T08:29:55;6.20;1.00
296;DHT22;132;48.770;9.200;2023-04-03T08:32:23;6.20;1.00
296;DHT22;132;48.770;9.200;2023-04-03T08:34:49;6.30;1.00
296;DHT22;132;48.770;9.200;2023-04-03T08:37:16;6.20;1.00
296;DHT22;132;48.770;9.200;2023-04-03T08:39:42;6.20;1.00
296;DHT22;132;48.770;9.200;2023-04-03T08:45:16;6.20;1.00
296;DHT22;132;48.770;9.200;2023-04-03T08:48:05;6.30;1.00
296;DHT22;132;48.770;9.200;2023-04-03T08:50:37;6.30;1.00
296;DHT22;132;48.770;9.200;2023-04-03T08:53:06;6.60;1.00
296;DHT22;132;48.770;9.200;2023-04-03T08:55:43;6.50;1.00
296;DHT22;132;48.770;9.200;2023-04-03T08:58:16;6.60;1.00
296;DHT22;132;48.770;9.200;2023-04-03T09:01:01;6.60;1.00
296;DHT22;132;48.770;9.200;2023-04-03T09:03:32;6.50;1.00
296;DHT22;132;48.770;9.200;2023-04-03T09:06:10;6.50;1.00
296;DHT22;132;48.770;9.200;2023-04-03T09:16:53;7.00;1.00
296;DHT22;132;48.770;9.200;2023-04-03T09:24:45;7.10;1.00
296;DHT22;132;48.770;9.200;2023-04-03T09:27:12;7.10;1.00
296;DHT22;132;48.770;9.200;2023-04-03T09:29:43;7.00;1.00
296;DHT22;132;48.770;9.200;2023-04-03T09:32:35;6.90;1.00
296;DHT22;132;48.770;9.200;2023-04-03T09:35:21;6.80;1.00
296;DHT22;132;48.770;9.200;2023-04-03T09:37:51;6.70;1.00
296;DHT22;132;48.770;9.200;2023-04-03T09:42:56;6.70;1.00
296;DHT22;132;48.770;9.200;2023-04-03T09:45:29;6.70;1.00
296;DHT22;132;48.770;9.200;2023-04-03T09:50:54;6.80;1.00
296;DHT22;132;48.770;9.200;2023-04-03T09:53:38;6.80;1.00
296;DHT22;132;48.770;9.200;2023-04-03T09:58:53;6.80;1.00
296;DHT22;132;48.770;9.200;2023-04-03T10:01:33;6.80;1.00
296;DHT22;132;48.770;9.200;2023-04-03T10:04:09;6.70;1.00
296;DHT22;132;48.770;9.200;2023-04-03T10:06:40;6.80;1.00
296;DHT22;132;48.770;9.200;2023-04-03T10:14:24;6.60;1.00
296;DHT22;132;48.770;9.200;2023-04-03T10:17:00;6.90;1.00
296;DHT22;132;48.770;9.200;2023-04-03T10:22:30;6.90;1.00
296;DHT22;132;48.770;9.200;2023-04-03T10:27:44;7.00;1.00
296;DHT22;132;48.770;9.200;2023-04-03T10:30:31;7.10;1.00
296;DHT22;132;48.770;9.200;2023-04-03T10:35:47;7.00;1.00
296;DHT22;132;48.770;9.200;2023-04-03T10:38:57;6.90;1.00
296;DHT22;132;48.770;9.200;2023-04-03T10:41:52;6.80;1.00
296;DHT22;132;48.770;9.200;2023-04-03T10:47:34;6.60;1.00
296;DHT22;132;48.770;9.200;2023-04-03T10:58:58;7.10;1.00
296;DHT22;132;48.770;9.200;2023-04-03T11:01:33;7.00;1.00
296;DHT22;132;48.770;9.200;2023-04-03T11:04:04;6.80;1.00
296;DHT22;132;48.770;9.200;2023-04-03T11:10:22;6.90;1.00
296;DHT22;132;48.770;9.200;2023-04-03T11:13:02;7.00;1.00
296;DHT22;132;48.770;9.200;2023-04-03T11:15:33;7.10;1.00
296;DHT22;132;48.770;9.200;2023-04-03T11:18:13;7.20;1.00
296;DHT22;132;48.770;9.200;2023-04-03T11:20:47;7.30;1.00
296;DHT22;132;48.770;9.200;2023-04-03T11:23:26;7.40;1.00
296;DHT22;132;48.770;9.200;2023-04-03T11:26:01;7.20;1.00
296;DHT22;132;48.770;9.200;2023-04-03T11:28:30;7.00;1.00
296;DHT22;132;48.770;9.200;2023-04-03T11:36:58;7.10;1.00
296;DHT22;132;48.770;9.200;2023-04-03T11:39:29;7.20;1.00
296;DHT22;132;48.770;9.200;2023-04-03T11:42:37;7.40;1.00
296;DHT22;132;48.770;9.200;2023-04-03T11:50:48;7.20;1.00
296;DHT22;132;48.770;9.200;2023-04-03T11:58:31;7.10;1.00
296;DHT22;132;48.770;9.200;2023-04-03T12:01:10;7.10;1.00
296;DHT22;132;48.770;9.200;2023-04-03T12:16:28;7.20;1.00
296;DHT22;132;48.770;9.200;2023-04-03T12:18:57;7.20;1.00
296;DHT22;132;48.770;9.200;2023-04-03T12:24:27;7.20;1.00
296;DHT22;132;48.770;9.200;2023-04-03T12:29:27;7.40;1.00
296;DHT22;132;48.770;9.200;2023-04-03T12:39:59;7.40;1.00
296;DHT22;132;48.770;9.200;2023-04-03T12:45:21;7.20;1.00
296;DHT22;132;48.770;9.200;2023-04-03T12:47:53;7.20;1.00
296;DHT22;132;48.770;9.200;2023-04-03T12:50:27;7.20;1.00
296;DHT22;132;48.770;9.200;2023-04-03T12:56:24;7.40;1.00
296;DHT22;132;48.770;9.200;2023-04-03T12:58:52;7.50;1.00
296;DHT22;132;48.770;9.200;2023-04-03T13:01:26;8.10;1.00
296;DHT22;132;48.770;9.200;2023-04-03T13:03:55;8.40;1.00
296;DHT22;132;48.770;9.200;2023-04-03T13:06:27;7.80;1.00
296;DHT22;132;48.770;9.200;2023-04-03T13:08:58;7.90;1.00
296;DHT22;132;48.770;9.200;2023-04-03T13:11:37;8.20;1.00
296;DHT22;132;48.770;9.200;2023-04-03T13:14:14;8.50;1.00
296;DHT22;132;48.770;9.200;2023-04-03T13:16:41;9.30;1.00
296;DHT22;132;48.770;9.200;2023-04-03T13:19:16;8.50;1.00
296;DHT22;132;48.770;9.200;2023-04-03T13:21:43;8.60;1.00
296;DHT22;132;48.770;9.200;2023-04-03T13:24:11;8.50;1.00
296;DHT22;132;48.770;9.200;2023-04-03T13:26:38;8.60;1.00
296;DHT22;132;48.770;9.200;2023-04-03T13:29:06;8.70;1.00
296;DHT22;132;48.770;9.200;2023-04-03T13:31:36;8.30;1.00
296;DHT22;132;48.770;9.200;2023-04-03T13:34:07;8.20;1.00
296;DHT22;132;48.770;9.200;2023-04-03T13:36:39;8.00;1.00
296;DHT22;132;48.770;9.200;2023-04-03T13:39:22;8.80;1.00
296;DHT22;132;48.770;9.200;2023-04-03T13:41:52;8.10;1.00
296;DHT22;132;48.770;9.200;2023-04-03T13:46:53;8.40;1.00
296;DHT22;132;48.770;9.200;2023-04-03T13:49:44;8.90;1.00
296;DHT22;132;48.770;9.200;2023-04-03T13:52:22;8.70;1.00
296;DHT22;132;48.770;9.200;2023-04-03T13:54:53;8.80;1.00
296;DHT22;132;48.770;9.200;2023-04-03T13:57:21;8.60;1.00
296;DHT22;132;48.770;9.200;2023-04-03T13:59:47;8.80;1.00
296;DHT22;132;48.770;9.200;2023-04-03T14:02:21;8.90;1.00
296;DHT22;132;48.770;9.200;2023-04-03T14:04:52;8.90;1.00
296;DHT22;132;48.770;9.200;2023-04-03T14:07:22;8.80;1.00
296;DHT22;132;48.770;9.200;2023-04-03T14:09:50;8.80;1.00
296;DHT22;132;48.770;9.200;2023-04-03T14:12:37;8.70;1.00
296;DHT22;132;48.770;9.200;2023-04-03T14:15:17;8.50;1.00
296;DHT22;132;48.770;9.200;2023-04-03T14:17:44;8.30;1.00
296;DHT22;132;48.770;9.200;2023-04-03T14:20:15;8.30;1.00
296;DHT22;132;48.770;9.200;2023-04-03T14:22:42;8.20;1.00
296;DHT22;132;48.770;9.200;2023-04-03T14:25:09;8.10;1.00
296;DHT22;132;48.770;9.200;2023-04-03T14:27:39;8.10;1.00
296;DHT22;132;48.770;9.200;2023-04-03T14:30:13;8.00;1.00
296;DHT22;132;48.770;9.200;2023-04-03T14:32:41;7.90;1.00
296;DHT22;132;48.770;9.200;2023-04-03T14:35:07;7.90;1.00
296;DHT22;132;48.770;9.200;2023-04-03T14:37:34;8.20;1.00
296;DHT22;132;48.770;9.200;2023-04-03T14:40:03;9.00;1.00
296;DHT22;132;48.770;9.200;2023-04-03T14:42:32;10.00;1.00
296;DHT22;132;48.770;9.200;2023-04-03T14:45:00;11.00;1.00
296;DHT22;132;48.770;9.200;2023-04-03T14:47:28;11.00;1.00
296;DHT22;132;48.770;9.200;2023-04-03T14:49:56;10.90;1.00
296;DHT22;132;48.770;9.200;2023-04-03T14:54:51;9.90;1.00
296;DHT22;132;48.770;9.200;2023-04-03T14:57:18;9.40;1.00
296;DHT22;132;48.770;9.200;2023-04-03T14:59:45;9.00;1.00
296;DHT22;132;48.770;9.200;2023-04-03T15:02:35;9.10;1.00
296;DHT22;132;48.770;9.200;2023-04-03T15:05:04;8.60;1.00
296;DHT22;132;48.770;9.200;2023-04-03T15:07:43;8.60;1.00
296;DHT22;132;48.770;9.200;2023-04-03T15:10:21;8.50;1.00
296;DHT22;132;48.770;9.200;2023-04-03T15:12:50;8.40;1.00
296;DHT22;132;48.770;9.200;2023-04-03T15:15:18;9.90;1.00
296;DHT22;132;48.770;9.200;2023-04-03T15:17:47;8.20;1.00
296;DHT22;132;48.770;9.200;2023-04-03T15:20:19;8.30;1.00
296;DHT22;132;48.770;9.200;2023-04-03T15:22:46;8.40;1.00
296;DHT22;132;48.770;9.200;2023-04-03T15:25:13;9.50;1.00
296;DHT22;132;48.770;9.200;2023-04-03T15:27:39;9.20;1.00
296;DHT22;132;48.770;9.200;2023-04-03T15:30:08;8.00;1.00
296;DHT22;132;48.770;9.200;2023-04-03T15:32:35;7.80;1.00
296;DHT22;132;48.770;9.200;2023-04-03T15:35:01;7.70;1.00
296;DHT22;132;48.770;9.200;2023-04-03T15:37:34;7.70;1.00
296;DHT22;132;48.770;9.200;2023-04-03T15:40:06;7.60;1.00
296;DHT22;132;48.770;9.200;2023-04-03T15:42:32;7.50;1.00
296;DHT22;132;48.770;9.200;2023-04-03T15:44:59;8.20;1.00
296;DHT22;132;48.770;9.200;2023-04-03T15:47:26;6.00;1.00
296;DHT22;132;48.770;9.200;2023-04-03T15:49:54;7.10;1.00
296;DHT22;132;48.770;9.200;2023-04-03T15:52:21;7.10;1.00
296;DHT22;132;48.770;9.200;2023-04-03T15:54:52;7.20;1.00
296;DHT22;132;48.770;9.200;2023-04-03T15:57:20;7.40;1.00
296;DHT22;132;48.770;9.200;2023-04-03T15:59:52;7.30;1.00
296;DHT22;132;48.770;9.200;2023-04-03T16:02:18;7.10;1.00
296;DHT22;132;48.770;9.200;2023-04-03T16:04:45;7.30;1.00
296;DHT22;132;48.770;9.200;2023-04-03T16:07:12;7.10;1.00
296;DHT22;132;48.770;9.200;2023-04-03T16:09:38;8.10;1.00
296;DHT22;132;48.770;9.200;2023-04-03T16:12:04;7.30;1.00
296;DHT22;132;48.770;9.200;2023-04-03T16:14:31;7.40;1.00
296;DHT22;132;48.770;9.200;2023-04-03T16:16:58;7.50;1.00
296;DHT22;132;48.770;9.200;2023-04-03T16:19:25;7.30;1.00
296;DHT22;132;48.770;9.200;2023-04-03T16:21:53;7.30;1.00
296;DHT22;132;48.770;9.200;2023-04-03T16:24:20;7.00;1.00
296;DHT22;132;48.770;9.200;2023-04-03T16:26:47;6.90;1.00
296;DHT22;132;48.770;9.200;2023-04-03T16:29:13;6.70;1.00
296;DHT22;132;48.770;9.200;2023-04-03T16:31:39;6.70;1.00
296;DHT22;132;48.770;9.200;2023-04-03T16:34:06;6.70;1.00
296;DHT22;132;48.770;9.200;2023-04-03T16:36:32;6.90;1.00
296;DHT22;132;48.770;9.200;2023-04-03T16:38:59;6.90;1.00
296;DHT22;132;48.770;9.200;2023-04-03T16:41:25;6.90;1.00
296;DHT22;132;48.770;9.200;2023-04-03T16:43:52;6.80;1.00
296;DHT22;132;48.770;9.200;2023-04-03T16:46:18;6.90;1.00
296;DHT22;132;48.770;9.200;2023-04-03T16:48:45;7.00;1.00
296;DHT22;132;48.770;9.200;2023-04-03T16:51:12;6.90;1.00
296;DHT22;132;48.770;9.200;2023-04-03T16:53:39;7.10;1.00
296;DHT22;132;48.770;9.200;2023-04-03T16:56:05;8.60;1.00
296;DHT22;132;48.770;9.200;2023-04-03T16:58:32;6.90;1.00
296;DHT22;132;48.770;9.200;2023-04-03T17:00:58;6.90;1.00
296;DHT22;132;48.770;9.200;2023-04-03T17:03:25;6.90;1.00
296;DHT22;132;48.770;9.200;2023-04-03T17:05:52;6.80;1.00
296;DHT22;132;48.770;9.200;2023-04-03T17:08:18;6.90;1.00
296;DHT22;132;48.770;9.200;2023-04-03T17:10:45;6.90;1.00
296;DHT22;132;48.770;9.200;2023-04-03T17:13:13;8.00;1.00
296;DHT22;132;48.770;9.200;2023-04-03T17:15:39;7.00;1.00
296;DHT22;132;48.770;9.200;2023-04-03T17:18:06;6.90;1.00
296;DHT22;132;48.770;9.200;2023-04-03T17:20:33;6.80;1.00
296;DHT22;132;48.770;9.200;2023-04-03T17:23:00;7.20;1.00
296;DHT22;132;48.770;9.200;2023-04-03T17:25:26;6.70;1.00
296;DHT22;132;48.770;9.200;2023-04-03T17:27:53;6.60;1.00
296;DHT22;132;48.770;9.200;2023-04-03T17:30:19;6.60;1.00
296;DHT22;132;48.770;9.200;2023-04-03T17:32:45;7.20;1.00
296;DHT22;132;48.770;9.200;2023-04-03T17:35:12;6.40;1.00
296;DHT22;132;48.770;9.200;2023-04-03T17:37:38;7.60;1.00
296;DHT22;132;48.770;9.200;2023-04-03T17:40:05;6.20;1.00
296;DHT22;132;48.770;9.200;2023-04-03T17:42:32;6.30;1.00
296;DHT22;132;48.770;9.200;2023-04-03T17:44:58;6.20;1.00
296;DHT22;132;48.770;9.200;2023-04-03T17:47:26;6.20;1.00
296;DHT22;132;48.770;9.200;2023-04-03T17:49:52;6.10;1.00
296;DHT22;132;48.770;9.200;2023-04-03T17:52:18;6.00;1.00
296;DHT22;132;48.770;9.200;2023-04-03T17:54:51;6.10;1.00
296;DHT22;132;48.770;9.200;2023-04-03T17:57:17;6.10;1.00
296;DHT22;132;48.770;9.200;2023-04-03T17:59:44;6.10;1.00
296;DHT22;132;48.770;9.200;2023-04-03T18:02:10;6.00;1.00
296;DHT22;132;48.770;9.200;2023-04-03T18:04:37;6.00;1.00
296;DHT22;132;48.770;9.200;2023-04-03T18:07:03;6.00;1.00
296;DHT22;132;48.770;9.200;2023-04-03T18:09:35;6.80;1.00
296;DHT22;132;48.770;9.200;2023-04-03T18:12:04;5.90;1.00
296;DHT22;132;48.770;9.200;2023-04-03T18:14:33;5.90;1.00
296;DHT22;132;48.770;9.200;2023-04-03T18:17:00;5.90;1.00
296;DHT22;132;48.770;9.200;2023-04-03T18:19:26;5.90;1.00
296;DHT22;132;48.770;9.200;2023-04-03T18:21:56;7.60;1.00
296;DHT22;132;48.770;9.200;2023-04-03T18:24:23;5.80;1.00
296;DHT22;132;48.770;9.200;2023-04-03T18:26:55;5.80;1.00
296;DHT22;132;48.770;9.200;2023-04-03T18:29:24;5.80;1.00
296;DHT22;132;48.770;9.200;2023-04-03T18:31:53;6.60;1.00
296;DHT22;132;48.770;9.200;2023-04-03T18:34:20;5.80;1.00
296;DHT22;132;48.770;9.200;2023-04-03T18:36:47;6.00;1.00
296;DHT22;132;48.770;9.200;2023-04-03T18:39:14;7.10;1.00
296;DHT22;132;48.770;9.200;2023-04-03T18:41:41;5.80;1.00
296;DHT22;132;48.770;9.200;2023-04-03T18:44:11;6.80;1.00
296;DHT22;132;48.770;9.200;2023-04-03T18:46:39;5.60;1.00
296;DHT22;132;48.770;9.200;2023-04-03T18:49:08;5.80;1.00
296;DHT22;132;48.770;9.200;2023-04-03T18:51:35;5.40;1.00
296;DHT22;132;48.770;9.200;2023-04-03T18:54:05;5.50;1.00
296;DHT22;132;48.770;9.200;2023-04-03T18:56:31;5.40;1.00
296;DHT22;132;48.770;9.200;2023-04-03T18:58:58;5.40;1.00
296;DHT22;132;48.770;9.200;2023-04-03T19:01:24;6.10;1.00
296;DHT22;132;48.770;9.200;2023-04-03T19:03:51;5.10;1.00
296;DHT22;132;48.770;9.200;2023-04-03T19:06:17;5.10;1.00
296;DHT22;132;48.770;9.200;2023-04-03T19:08:44;5.10;1.00
296;DHT22;132;48.770;9.200;2023-04-03T19:11:10;5.10;1.00